Terminal Aerodrome Forecast
Issued by NWS

Home | Current Version | Previous Version | Text Only | Print | Product List | Glossary On
Versions: 1 2 3 4 5 6 7 8 9 10 11 12 13 14
000
FTUS45 KCYS 230500
TAFAIA
TAF
KAIA 230520Z 2306/2406 14015KT P6SM SCT120
     FM231400 23017G26KT P6SM SCT250
     FM231600 29020G30KT P6SM SCT250=

USA.gov is the U.S. government's official web portal to all federal, state and local government web resources and services.